sensor_id;sensor_type;location;lat;lon;timestamp;pressure;altitude;pressure_sealevel;temperature;humidity
30636;BME280;17400;52.392;9.750;2023-04-06T00:01:59;101369.72;;;5.36;51.00
30636;BME280;17400;52.392;9.750;2023-04-06T00:04:27;101376.25;;;5.24;52.01
30636;BME280;17400;52.392;9.750;2023-04-06T00:06:54;101373.84;;;5.21;51.90
30636;BME280;17400;52.392;9.750;2023-04-06T00:09:22;101369.22;;;5.13;52.31
30636;BME280;17400;52.392;9.750;2023-04-06T00:11:50;101368.53;;;5.11;52.16
30636;BME280;17400;52.392;9.750;2023-04-06T00:14:18;101366.00;;;4.99;52.33
30636;BME280;17400;52.392;9.750;2023-04-06T00:16:45;101369.66;;;4.98;52.70
30636;BME280;17400;52.392;9.750;2023-04-06T00:19:14;101370.53;;;4.99;53.00
30636;BME280;17400;52.392;9.750;2023-04-06T00:21:42;101361.63;;;4.98;53.32
30636;BME280;17400;52.392;9.750;2023-04-06T00:24:10;101360.22;;;4.94;53.70
30636;BME280;17400;52.392;9.750;2023-04-06T00:26:37;101365.59;;;4.94;53.22
30636;BME280;17400;52.392;9.750;2023-04-06T00:29:05;101362.47;;;4.99;53.34
30636;BME280;17400;52.392;9.750;2023-04-06T00:31:33;101362.47;;;4.89;53.72
30636;BME280;17400;52.392;9.750;2023-04-06T00:34:01;101362.22;;;4.92;53.55
30636;BME280;17400;52.392;9.750;2023-04-06T00:36:30;101359.94;;;4.88;53.64
30636;BME280;17400;52.392;9.750;2023-04-06T00:38:58;101354.84;;;4.94;53.43
30636;BME280;17400;52.392;9.750;2023-04-06T00:41:25;101359.66;;;4.91;53.75
30636;BME280;17400;52.392;9.750;2023-04-06T00:43:53;101357.72;;;4.73;54.29
30636;BME280;17400;52.392;9.750;2023-04-06T00:46:21;101358.41;;;4.65;54.82
30636;BME280;17400;52.392;9.750;2023-04-06T00:48:49;101350.94;;;4.49;55.66
30636;BME280;17400;52.392;9.750;2023-04-06T00:51:16;101352.66;;;4.50;55.92
30636;BME280;17400;52.392;9.750;2023-04-06T00:53:45;101352.66;;;4.50;56.32
30636;BME280;17400;52.392;9.750;2023-04-06T00:56:13;101350.53;;;4.44;56.72
30636;BME280;17400;52.392;9.750;2023-04-06T00:58:41;101338.53;;;4.39;57.22
30636;BME280;17400;52.392;9.750;2023-04-06T01:01:08;101337.41;;;4.41;57.67
30636;BME280;17400;52.392;9.750;2023-04-06T01:03:36;101327.53;;;4.42;57.62
30636;BME280;17400;52.392;9.750;2023-04-06T01:06:04;101335.72;;;4.40;58.32
30636;BME280;17400;52.392;9.750;2023-04-06T01:08:31;101329.38;;;4.41;58.39
30636;BME280;17400;52.392;9.750;2023-04-06T01:11:00;101331.31;;;4.39;58.68
30636;BME280;17400;52.392;9.750;2023-04-06T01:13:28;101325.84;;;4.31;59.20
30636;BME280;17400;52.392;9.750;2023-04-06T01:15:56;101327.38;;;4.33;59.03
30636;BME280;17400;52.392;9.750;2023-04-06T01:18:25;101319.50;;;4.22;59.87
30636;BME280;17400;52.392;9.750;2023-04-06T01:20:53;101328.81;;;4.18;60.45
30636;BME280;17400;52.392;9.750;2023-04-06T01:23:22;101324.97;;;4.21;60.28
30636;BME280;17400;52.392;9.750;2023-04-06T01:25:50;101324.28;;;4.28;59.99
30636;BME280;17400;52.392;9.750;2023-04-06T01:28:19;101324.56;;;4.25;60.04
30636;BME280;17400;52.392;9.750;2023-04-06T01:30:47;101320.22;;;4.34;59.93
30636;BME280;17400;52.392;9.750;2023-04-06T01:33:14;101318.50;;;4.13;60.73
30636;BME280;17400;52.392;9.750;2023-04-06T01:35:42;101321.19;;;4.04;61.85
30636;BME280;17400;52.392;9.750;2023-04-06T01:38:10;101316.94;;;4.11;61.72
30636;BME280;17400;52.392;9.750;2023-04-06T01:40:39;101319.63;;;4.21;61.08
30636;BME280;17400;52.392;9.750;2023-04-06T01:43:07;101317.94;;;4.20;61.91
30636;BME280;17400;52.392;9.750;2023-04-06T01:45:34;101318.22;;;4.16;61.98
30636;BME280;17400;52.392;9.750;2023-04-06T01:48:02;101326.25;;;4.16;62.53
30636;BME280;17400;52.392;9.750;2023-04-06T01:50:30;101315.38;;;3.98;64.41
30636;BME280;17400;52.392;9.750;2023-04-06T01:52:58;101321.59;;;3.99;65.36
30636;BME280;17400;52.392;9.750;2023-04-06T01:55:25;101320.47;;;4.02;65.40
30636;BME280;17400;52.392;9.750;2023-04-06T01:57:54;101314.81;;;4.05;65.44
30636;BME280;17400;52.392;9.750;2023-04-06T02:00:22;101313.97;;;4.04;65.31
30636;BME280;17400;52.392;9.750;2023-04-06T02:02:50;101317.22;;;4.08;65.37
30636;BME280;17400;52.392;9.750;2023-04-06T02:05:17;101315.09;;;4.02;65.95
30636;BME280;17400;52.392;9.750;2023-04-06T02:07:45;101318.50;;;4.04;66.08
30636;BME280;17400;52.392;9.750;2023-04-06T02:10:14;101308.19;;;3.99;66.12
30636;BME280;17400;52.392;9.750;2023-04-06T02:12:42;101304.66;;;4.08;65.25
30636;BME280;17400;52.392;9.750;2023-04-06T02:15:11;101302.81;;;4.09;65.01
30636;BME280;17400;52.392;9.750;2023-04-06T02:17:39;101306.50;;;3.98;65.41
30636;BME280;17400;52.392;9.750;2023-04-06T02:20:08;101307.75;;;3.94;66.50
30636;BME280;17400;52.392;9.750;2023-04-06T02:22:36;101306.59;;;3.77;68.47
30636;BME280;17400;52.392;9.750;2023-04-06T02:25:04;101302.66;;;3.71;69.31
30636;BME280;17400;52.392;9.750;2023-04-06T02:27:32;101299.69;;;3.64;70.13
30636;BME280;17400;52.392;9.750;2023-04-06T02:30:00;101301.53;;;3.74;69.58
30636;BME280;17400;52.392;9.750;2023-04-06T02:32:29;101301.38;;;3.75;69.98
30636;BME280;17400;52.392;9.750;2023-04-06T02:34:57;101300.25;;;3.68;70.44
30636;BME280;17400;52.392;9.750;2023-04-06T02:37:25;101300.41;;;3.66;70.58
30636;BME280;17400;52.392;9.750;2023-04-06T02:39:53;101297.53;;;3.58;70.84
30636;BME280;17400;52.392;9.750;2023-04-06T02:42:20;101295.59;;;3.70;70.12
30636;BME280;17400;52.392;9.750;2023-04-06T02:44:48;101300.94;;;3.70;70.20
30636;BME280;17400;52.392;9.750;2023-04-06T02:47:16;101296.75;;;3.77;69.22
30636;BME280;17400;52.392;9.750;2023-04-06T02:49:45;101288.00;;;3.75;68.94
30636;BME280;17400;52.392;9.750;2023-04-06T02:52:14;101290.41;;;3.78;68.83
30636;BME280;17400;52.392;9.750;2023-04-06T02:54:41;101291.66;;;3.74;69.13
30636;BME280;17400;52.392;9.750;2023-04-06T02:57:09;101286.72;;;3.79;68.12
30636;BME280;17400;52.392;9.750;2023-04-06T02:59:37;101289.69;;;3.76;68.17
30636;BME280;17400;52.392;9.750;2023-04-06T03:02:05;101280.81;;;3.76;67.82
30636;BME280;17400;52.392;9.750;2023-04-06T03:04:33;101284.88;;;3.70;67.76
30636;BME280;17400;52.392;9.750;2023-04-06T03:07:02;101284.00;;;3.60;68.55
30636;BME280;17400;52.392;9.750;2023-04-06T03:09:29;101289.66;;;3.57;68.56
30636;BME280;17400;52.392;9.750;2023-04-06T03:11:58;101281.75;;;3.55;69.07
30636;BME280;17400;52.392;9.750;2023-04-06T03:14:27;101281.31;;;3.50;69.26
30636;BME280;17400;52.392;9.750;2023-04-06T03:16:55;101286.81;;;3.58;69.00
30636;BME280;17400;52.392;9.750;2023-04-06T03:19:23;101269.94;;;3.58;68.87
30636;BME280;17400;52.392;9.750;2023-04-06T03:21:50;101279.22;;;3.54;68.57
30636;BME280;17400;52.392;9.750;2023-04-06T03:24:19;101279.47;;;3.50;69.39
30636;BME280;17400;52.392;9.750;2023-04-06T03:26:47;101279.75;;;3.47;69.20
30636;BME280;17400;52.392;9.750;2023-04-06T03:29:15;101281.75;;;3.55;68.29
30636;BME280;17400;52.392;9.750;2023-04-06T03:31:42;101281.19;;;3.52;68.87
30636;BME280;17400;52.392;9.750;2023-04-06T03:34:10;101278.78;;;3.58;68.24
30636;BME280;17400;52.392;9.750;2023-04-06T03:36:38;101280.78;;;3.66;66.68
30636;BME280;17400;52.392;9.750;2023-04-06T03:39:06;101286.72;;;3.70;66.33
30636;BME280;17400;52.392;9.750;2023-04-06T03:41:35;101285.31;;;3.75;66.04
30636;BME280;17400;52.392;9.750;2023-04-06T03:44:03;101280.69;;;3.77;65.65
30636;BME280;17400;52.392;9.750;2023-04-06T03:46:30;101283.50;;;3.76;65.34
30636;BME280;17400;52.392;9.750;2023-04-06T03:48:58;101287.16;;;3.75;65.33
30636;BME280;17400;52.392;9.750;2023-04-06T03:51:26;101280.25;;;3.72;65.30
30636;BME280;17400;52.392;9.750;2023-04-06T03:53:54;101284.88;;;3.70;65.74
30636;BME280;17400;52.392;9.750;2023-04-06T03:56:22;101285.41;;;3.54;66.80
30636;BME280;17400;52.392;9.750;2023-04-06T03:58:51;101286.81;;;3.58;66.37
30636;BME280;17400;52.392;9.750;2023-04-06T04:01:19;101286.81;;;3.48;67.13
30636;BME280;17400;52.392;9.750;2023-04-06T04:03:46;101283.47;;;3.56;66.46
30636;BME280;17400;52.392;9.750;2023-04-06T04:06:17;101285.56;;;3.53;67.03
30636;BME280;17400;52.392;9.750;2023-04-06T04:08:44;101281.75;;;3.45;67.25
30636;BME280;17400;52.392;9.750;2023-04-06T04:11:12;101282.97;;;3.41;67.17
30636;BME280;17400;52.392;9.750;2023-04-06T04:13:42;101285.47;;;3.33;67.98
30636;BME280;17400;52.392;9.750;2023-04-06T04:16:11;101290.69;;;3.34;67.63
30636;BME280;17400;52.392;9.750;2023-04-06T04:18:38;101285.22;;;3.36;67.33
30636;BME280;17400;52.392;9.750;2023-04-06T04:21:06;101290.38;;;3.18;68.13
30636;BME280;17400;52.392;9.750;2023-04-06T04:23:34;101296.41;;;3.20;68.97
30636;BME280;17400;52.392;9.750;2023-04-06T04:26:03;101287.03;;;3.36;67.19
30636;BME280;17400;52.392;9.750;2023-04-06T04:28:31;101288.16;;;3.33;66.96
30636;BME280;17400;52.392;9.750;2023-04-06T04:30:59;101288.22;;;3.43;66.52
30636;BME280;17400;52.392;9.750;2023-04-06T04:33:29;101287.63;;;3.39;65.72
30636;BME280;17400;52.392;9.750;2023-04-06T04:36:00;101282.56;;;3.36;65.67
30636;BME280;17400;52.392;9.750;2023-04-06T04:38:28;101283.69;;;3.33;65.94
30636;BME280;17400;52.392;9.750;2023-04-06T04:40:55;101281.41;;;3.29;65.90
30636;BME280;17400;52.392;9.750;2023-04-06T04:43:23;101288.97;;;3.24;66.74
30636;BME280;17400;52.392;9.750;2023-04-06T04:45:51;101283.38;;;3.27;66.70
30636;BME280;17400;52.392;9.750;2023-04-06T04:48:19;101283.38;;;3.27;65.77
30636;BME280;17400;52.392;9.750;2023-04-06T04:50:48;101284.66;;;3.32;66.15
30636;BME280;17400;52.392;9.750;2023-04-06T04:53:15;101291.25;;;3.28;65.45
30636;BME280;17400;52.392;9.750;2023-04-06T04:55:43;101291.03;;;3.10;67.09
30636;BME280;17400;52.392;9.750;2023-04-06T04:58:11;101287.53;;;3.10;66.61
30636;BME280;17400;52.392;9.750;2023-04-06T05:00:41;101285.53;;;3.12;66.85
30636;BME280;17400;52.392;9.750;2023-04-06T05:03:18;101289.34;;;3.09;66.89
30636;BME280;17400;52.392;9.750;2023-04-06T05:05:48;101294.19;;;2.94;67.98
30636;BME280;17400;52.392;9.750;2023-04-06T05:08:16;101290.72;;;3.04;68.41
30636;BME280;17400;52.392;9.750;2023-04-06T05:10:44;101287.06;;;3.05;68.28
30636;BME280;17400;52.392;9.750;2023-04-06T05:13:13;101293.41;;;3.04;68.40
30636;BME280;17400;52.392;9.750;2023-04-06T05:15:41;101286.81;;;3.08;68.45
30636;BME280;17400;52.392;9.750;2023-04-06T05:18:08;101290.88;;;3.02;68.77
30636;BME280;17400;52.392;9.750;2023-04-06T05:20:37;101293.38;;;2.94;69.04
30636;BME280;17400;52.392;9.750;2023-04-06T05:23:06;101290.78;;;2.92;69.15
30636;BME280;17400;52.392;9.750;2023-04-06T05:25:34;101287.81;;;2.86;69.77
30636;BME280;17400;52.392;9.750;2023-04-06T05:28:02;101282.59;;;2.84;70.66
30636;BME280;17400;52.392;9.750;2023-04-06T05:30:29;101288.22;;;2.81;70.41
30636;BME280;17400;52.392;9.750;2023-04-06T05:32:58;101294.41;;;2.81;70.43
30636;BME280;17400;52.392;9.750;2023-04-06T05:35:26;101286.94;;;2.75;71.24
30636;BME280;17400;52.392;9.750;2023-04-06T05:37:54;101284.47;;;2.93;70.45
30636;BME280;17400;52.392;9.750;2023-04-06T05:40:23;101283.38;;;2.96;70.33
30636;BME280;17400;52.392;9.750;2023-04-06T05:42:51;101289.13;;;2.91;70.16
30636;BME280;17400;52.392;9.750;2023-04-06T05:45:18;101290.69;;;2.94;69.98
30636;BME280;17400;52.392;9.750;2023-04-06T05:47:47;101291.69;;;3.03;69.56
30636;BME280;17400;52.392;9.750;2023-04-06T05:50:15;101286.66;;;3.09;69.05
30636;BME280;17400;52.392;9.750;2023-04-06T05:52:43;101279.06;;;3.14;68.15
30636;BME280;17400;52.392;9.750;2023-04-06T05:55:12;101285.31;;;3.15;68.58
30636;BME280;17400;52.392;9.750;2023-04-06T05:57:44;101278.25;;;3.14;68.14
30636;BME280;17400;52.392;9.750;2023-04-06T06:00:13;101285.69;;;3.10;69.45
30636;BME280;17400;52.392;9.750;2023-04-06T06:02:41;101278.28;;;3.24;69.25
30636;BME280;17400;52.392;9.750;2023-04-06T06:05:09;101274.84;;;3.43;67.62
30636;BME280;17400;52.392;9.750;2023-04-06T06:07:37;101283.16;;;3.49;66.06
30636;BME280;17400;52.392;9.750;2023-04-06T06:10:06;101275.81;;;3.42;65.32
30636;BME280;17400;52.392;9.750;2023-04-06T06:12:34;101285.00;;;3.59;66.01
30636;BME280;17400;52.392;9.750;2023-04-06T06:15:06;101279.38;;;3.52;64.75
30636;BME280;17400;52.392;9.750;2023-04-06T06:17:34;101277.66;;;3.51;64.83
30636;BME280;17400;52.392;9.750;2023-04-06T06:20:06;101278.41;;;3.63;64.82
30636;BME280;17400;52.392;9.750;2023-04-06T06:22:34;101271.06;;;3.65;64.68
30636;BME280;17400;52.392;9.750;2023-04-06T06:25:01;101279.53;;;3.70;63.55
30636;BME280;17400;52.392;9.750;2023-04-06T06:27:29;101278.41;;;3.73;63.41
30636;BME280;17400;52.392;9.750;2023-04-06T06:29:57;101269.81;;;3.79;63.46
30636;BME280;17400;52.392;9.750;2023-04-06T06:32:26;101280.69;;;3.87;62.54
30636;BME280;17400;52.392;9.750;2023-04-06T06:34:53;101278.16;;;3.95;63.03
30636;BME280;17400;52.392;9.750;2023-04-06T06:37:21;101277.59;;;4.11;62.72
30636;BME280;17400;52.392;9.750;2023-04-06T06:39:49;101281.13;;;4.22;60.85
30636;BME280;17400;52.392;9.750;2023-04-06T06:42:18;101282.69;;;4.34;60.76
30636;BME280;17400;52.392;9.750;2023-04-06T06:44:45;101277.88;;;4.47;61.62
30636;BME280;17400;52.392;9.750;2023-04-06T06:47:13;101278.28;;;4.53;58.29
30636;BME280;17400;52.392;9.750;2023-04-06T06:49:42;101277.44;;;4.62;58.72
30636;BME280;17400;52.392;9.750;2023-04-06T06:52:10;101276.28;;;4.64;57.70
30636;BME280;17400;52.392;9.750;2023-04-06T06:54:38;101273.00;;;4.80;58.14
30636;BME280;17400;52.392;9.750;2023-04-06T06:57:06;101269.56;;;4.88;56.64
30636;BME280;17400;52.392;9.750;2023-04-06T06:59:34;101267.03;;;4.96;56.87
30636;BME280;17400;52.392;9.750;2023-04-06T07:02:03;101268.22;;;5.12;56.46
30636;BME280;17400;52.392;9.750;2023-04-06T07:04:30;101275.84;;;5.16;54.79
30636;BME280;17400;52.392;9.750;2023-04-06T07:07:00;101266.53;;;5.11;53.66
30636;BME280;17400;52.392;9.750;2023-04-06T07:09:28;101271.44;;;5.15;53.85
30636;BME280;17400;52.392;9.750;2023-04-06T07:11:55;101273.16;;;5.16;52.81
30636;BME280;17400;52.392;9.750;2023-04-06T07:14:23;101272.81;;;5.29;52.71
30636;BME280;17400;52.392;9.750;2023-04-06T07:16:51;101264.94;;;5.46;52.67
30636;BME280;17400;52.392;9.750;2023-04-06T07:19:19;101267.97;;;5.61;52.77
30636;BME280;17400;52.392;9.750;2023-04-06T07:21:47;101265.66;;;5.66;51.50
30636;BME280;17400;52.392;9.750;2023-04-06T07:24:17;101259.84;;;5.71;51.37
30636;BME280;17400;52.392;9.750;2023-04-06T07:26:44;101263.69;;;5.68;50.55
30636;BME280;17400;52.392;9.750;2023-04-06T07:29:12;101270.97;;;5.58;50.19
30636;BME280;17400;52.392;9.750;2023-04-06T07:31:41;101260.16;;;5.67;50.04
30636;BME280;17400;52.392;9.750;2023-04-06T07:34:09;101260.25;;;5.76;49.91
30636;BME280;17400;52.392;9.750;2023-04-06T07:36:36;101261.41;;;5.73;49.74
30636;BME280;17400;52.392;9.750;2023-04-06T07:39:04;101260.25;;;5.94;50.01
30636;BME280;17400;52.392;9.750;2023-04-06T07:41:33;101267.91;;;6.16;50.15
30636;BME280;17400;52.392;9.750;2023-04-06T07:44:01;101271.09;;;6.38;49.40
30636;BME280;17400;52.392;9.750;2023-04-06T07:46:29;101259.28;;;6.57;48.88
30636;BME280;17400;52.392;9.750;2023-04-06T07:48:59;101263.56;;;6.68;48.40
30636;BME280;17400;52.392;9.750;2023-04-06T07:51:27;101262.41;;;6.71;48.07
30636;BME280;17400;52.392;9.750;2023-04-06T07:53:55;101262.69;;;6.59;48.52
30636;BME280;17400;52.392;9.750;2023-04-06T07:56:23;101258.13;;;6.60;47.58
30636;BME280;17400;52.392;9.750;2023-04-06T07:58:53;101259.41;;;6.74;47.87
30636;BME280;17400;52.392;9.750;2023-04-06T08:01:22;101264.31;;;6.78;48.31
30636;BME280;17400;52.392;9.750;2023-04-06T08:03:50;101264.72;;;6.92;48.33
30636;BME280;17400;52.392;9.750;2023-04-06T08:06:18;101248.78;;;6.98;47.73
30636;BME280;17400;52.392;9.750;2023-04-06T08:08:46;101260.16;;;7.19;48.22
30636;BME280;17400;52.392;9.750;2023-04-06T08:11:14;101261.53;;;7.23;47.54
30636;BME280;17400;52.392;9.750;2023-04-06T08:13:42;101253.13;;;7.26;48.47
30636;BME280;17400;52.392;9.750;2023-04-06T08:16:11;101254.03;;;7.43;46.75
30636;BME280;17400;52.392;9.750;2023-04-06T08:18:39;101254.50;;;7.38;46.65
30636;BME280;17400;52.392;9.750;2023-04-06T08:21:06;101250.31;;;7.36;47.19
30636;BME280;17400;52.392;9.750;2023-04-06T08:23:35;101247.28;;;7.39;46.32
30636;BME280;17400;52.392;9.750;2023-04-06T08:26:03;101248.47;;;7.44;46.47
30636;BME280;17400;52.392;9.750;2023-04-06T08:28:31;101254.22;;;7.58;46.71
30636;BME280;17400;52.392;9.750;2023-04-06T08:31:03;101254.91;;;7.52;46.47
30636;BME280;17400;52.392;9.750;2023-04-06T08:33:33;101246.03;;;7.67;46.81
30636;BME280;17400;52.392;9.750;2023-04-06T08:36:09;101247.84;;;7.67;47.01
30636;BME280;17400;52.392;9.750;2023-04-06T08:38:38;101249.19;;;7.63;47.13
30636;BME280;17400;52.392;9.750;2023-04-06T08:41:08;101247.53;;;7.70;46.95
30636;BME280;17400;52.392;9.750;2023-04-06T08:43:42;101242.69;;;7.90;46.92
30636;BME280;17400;52.392;9.750;2023-04-06T08:46:11;101242.53;;;8.00;46.73
30636;BME280;17400;52.392;9.750;2023-04-06T08:48:41;101248.91;;;7.99;46.68
30636;BME280;17400;52.392;9.750;2023-04-06T08:51:09;101237.16;;;8.16;47.38
30636;BME280;17400;52.392;9.750;2023-04-06T08:53:38;101240.84;;;8.32;47.19
30636;BME280;17400;52.392;9.750;2023-04-06T08:56:07;101241.88;;;8.47;46.67
30636;BME280;17400;52.392;9.750;2023-04-06T08:58:38;101231.25;;;8.54;46.15
30636;BME280;17400;52.392;9.750;2023-04-06T09:01:07;101238.84;;;8.59;46.19
30636;BME280;17400;52.392;9.750;2023-04-06T09:03:37;101233.97;;;8.46;44.58
30636;BME280;17400;52.392;9.750;2023-04-06T09:06:08;101236.47;;;8.56;44.74
30636;BME280;17400;52.392;9.750;2023-04-06T09:08:38;101227.69;;;8.62;44.21
30636;BME280;17400;52.392;9.750;2023-04-06T09:11:09;101223.66;;;8.58;44.70
30636;BME280;17400;52.392;9.750;2023-04-06T09:13:47;101226.88;;;8.61;44.86
30636;BME280;17400;52.392;9.750;2023-04-06T09:16:16;101230.03;;;8.73;44.78
30636;BME280;17400;52.392;9.750;2023-04-06T09:18:44;101219.91;;;8.75;44.77
30636;BME280;17400;52.392;9.750;2023-04-06T09:21:16;101226.78;;;8.86;44.32
30636;BME280;17400;52.392;9.750;2023-04-06T09:23:45;101220.72;;;8.84;43.93
30636;BME280;17400;52.392;9.750;2023-04-06T09:26:17;101227.94;;;9.00;44.25
30636;BME280;17400;52.392;9.750;2023-04-06T09:28:46;101223.50;;;9.15;43.31
30636;BME280;17400;52.392;9.750;2023-04-06T09:31:15;101232.28;;;9.09;42.37
30636;BME280;17400;52.392;9.750;2023-04-06T09:33:45;101223.19;;;9.10;42.15
30636;BME280;17400;52.392;9.750;2023-04-06T09:36:14;101227.69;;;9.18;41.91
30636;BME280;17400;52.392;9.750;2023-04-06T09:38:53;101223.78;;;9.21;41.83
30636;BME280;17400;52.392;9.750;2023-04-06T09:41:23;101219.38;;;9.28;41.48
30636;BME280;17400;52.392;9.750;2023-04-06T09:43:51;101210.53;;;9.42;42.00
30636;BME280;17400;52.392;9.750;2023-04-06T09:46:21;101217.22;;;9.55;41.79
30636;BME280;17400;52.392;9.750;2023-04-06T09:48:49;101213.13;;;9.59;41.36
30636;BME280;17400;52.392;9.750;2023-04-06T09:51:19;101210.78;;;9.56;40.75
30636;BME280;17400;52.392;9.750;2023-04-06T09:53:52;101217.16;;;9.63;41.72
30636;BME280;17400;52.392;9.750;2023-04-06T09:56:23;101213.06;;;9.67;40.89
30636;BME280;17400;52.392;9.750;2023-04-06T09:58:57;101204.69;;;9.62;40.67
30636;BME280;17400;52.392;9.750;2023-04-06T10:01:32;101203.47;;;9.64;40.79
30636;BME280;17400;52.392;9.750;2023-04-06T10:04:13;101197.16;;;9.72;40.59
30636;BME280;17400;52.392;9.750;2023-04-06T10:06:48;101199.16;;;9.78;39.87
30636;BME280;17400;52.392;9.750;2023-04-06T10:09:22;101195.78;;;9.76;39.91
30636;BME280;17400;52.392;9.750;2023-04-06T10:11:52;101194.56;;;9.79;39.92
30636;BME280;17400;52.392;9.750;2023-04-06T10:14:20;101195.28;;;9.96;40.53
30636;BME280;17400;52.392;9.750;2023-04-06T10:16:48;101188.88;;;9.97;39.97
30636;BME280;17400;52.392;9.750;2023-04-06T10:19:18;101194.38;;;10.04;40.04
30636;BME280;17400;52.392;9.750;2023-04-06T10:21:54;101188.97;;;10.04;39.44
30636;BME280;17400;52.392;9.750;2023-04-06T10:24:23;101191.78;;;10.10;39.45
30636;BME280;17400;52.392;9.750;2023-04-06T10:26:58;101190.69;;;10.20;39.43
30636;BME280;17400;52.392;9.750;2023-04-06T10:29:26;101191.72;;;10.18;38.94
30636;BME280;17400;52.392;9.750;2023-04-06T10:31:54;101186.59;;;10.24;38.98
30636;BME280;17400;52.392;9.750;2023-04-06T10:34:22;101186.19;;;10.35;40.04
30636;BME280;17400;52.392;9.750;2023-04-06T10:37:10;101181.28;;;10.39;39.38
30636;BME280;17400;52.392;9.750;2023-04-06T10:39:47;101185.69;;;10.31;39.02
30636;BME280;17400;52.392;9.750;2023-04-06T10:42:15;101183.66;;;10.33;37.87
30636;BME280;17400;52.392;9.750;2023-04-06T10:44:43;101176.06;;;10.29;37.93
30636;BME280;17400;52.392;9.750;2023-04-06T10:47:18;101184.47;;;10.34;37.34
30636;BME280;17400;52.392;9.750;2023-04-06T10:49:46;101173.31;;;10.37;37.12
30636;BME280;17400;52.392;9.750;2023-04-06T10:52:15;101188.72;;;10.37;36.85
30636;BME280;17400;52.392;9.750;2023-04-06T10:54:44;101171.56;;;10.44;36.75
30636;BME280;17400;52.392;9.750;2023-04-06T10:57:16;101167.06;;;10.52;37.13
30636;BME280;17400;52.392;9.750;2023-04-06T10:59:43;101174.19;;;10.53;36.96
30636;BME280;17400;52.392;9.750;2023-04-06T11:02:19;101170.75;;;10.59;36.07
30636;BME280;17400;52.392;9.750;2023-04-06T11:04:55;101173.06;;;10.62;36.85
30636;BME280;17400;52.392;9.750;2023-04-06T11:07:25;101185.66;;;10.55;36.80
30636;BME280;17400;52.392;9.750;2023-04-06T11:09:53;101165.50;;;10.57;36.81
30636;BME280;17400;52.392;9.750;2023-04-06T11:12:41;101158.03;;;10.59;36.64
30636;BME280;17400;52.392;9.750;2023-04-06T11:15:09;101154.78;;;10.64;37.58
30636;BME280;17400;52.392;9.750;2023-04-06T11:17:38;101153.28;;;10.76;36.92
30636;BME280;17400;52.392;9.750;2023-04-06T11:20:10;101145.50;;;10.88;36.42
30636;BME280;17400;52.392;9.750;2023-04-06T11:22:49;101142.88;;;10.95;36.43
30636;BME280;17400;52.392;9.750;2023-04-06T11:25:17;101149.03;;;11.04;34.74
30636;BME280;17400;52.392;9.750;2023-04-06T11:27:46;101146.88;;;11.14;35.14
30636;BME280;17400;52.392;9.750;2023-04-06T11:30:14;101151.72;;;11.19;34.43
30636;BME280;17400;52.392;9.750;2023-04-06T11:32:43;101151.53;;;11.20;34.42
30636;BME280;17400;52.392;9.750;2023-04-06T11:35:21;101144.25;;;11.21;34.98
30636;BME280;17400;52.392;9.750;2023-04-06T11:37:50;101148.88;;;11.27;34.72
30636;BME280;17400;52.392;9.750;2023-04-06T11:40:21;101148.69;;;11.28;34.89
30636;BME280;17400;52.392;9.750;2023-04-06T11:42:52;101141.22;;;11.30;34.87
30636;BME280;17400;52.392;9.750;2023-04-06T11:45:20;101143.38;;;11.35;34.64
30636;BME280;17400;52.392;9.750;2023-04-06T11:47:55;101126.59;;;11.46;34.35
30636;BME280;17400;52.392;9.750;2023-04-06T11:50:24;101131.44;;;11.51;34.72
30636;BME280;17400;52.392;9.750;2023-04-06T11:52:59;101136.41;;;11.69;34.70
30636;BME280;17400;52.392;9.750;2023-04-06T11:55:28;101142.59;;;12.06;34.74
30636;BME280;17400;52.392;9.750;2023-04-06T11:57:59;101128.94;;;12.21;34.86
30636;BME280;17400;52.392;9.750;2023-04-06T12:00:26;101133.16;;;12.24;34.05
30636;BME280;17400;52.392;9.750;2023-04-06T12:02:58;101107.22;;;12.21;34.43
30636;BME280;17400;52.392;9.750;2023-04-06T12:05:26;101128.53;;;12.24;34.49
30636;BME280;17400;52.392;9.750;2023-04-06T12:07:54;101115.88;;;12.38;34.33
30636;BME280;17400;52.392;9.750;2023-04-06T12:10:25;101114.75;;;12.54;34.24
30636;BME280;17400;52.392;9.750;2023-04-06T12:12:53;101112.69;;;12.63;34.00
30636;BME280;17400;52.392;9.750;2023-04-06T12:15:21;101110.41;;;12.66;33.79
30636;BME280;17400;52.392;9.750;2023-04-06T12:17:48;101114.44;;;12.77;34.12
30636;BME280;17400;52.392;9.750;2023-04-06T12:20:17;101116.38;;;12.90;33.49
30636;BME280;17400;52.392;9.750;2023-04-06T12:22:52;101100.13;;;13.04;33.59
30636;BME280;17400;52.392;9.750;2023-04-06T12:25:20;101109.53;;;13.08;33.21
30636;BME280;17400;52.392;9.750;2023-04-06T12:27:50;101117.28;;;13.17;32.91
30636;BME280;17400;52.392;9.750;2023-04-06T12:30:18;101107.72;;;13.22;33.18
30636;BME280;17400;52.392;9.750;2023-04-06T12:32:46;101113.56;;;13.32;33.33
30636;BME280;17400;52.392;9.750;2023-04-06T12:35:17;101097.25;;;13.32;33.00
30636;BME280;17400;52.392;9.750;2023-04-06T12:37:47;101095.19;;;13.34;33.50
30636;BME280;17400;52.392;9.750;2023-04-06T12:40:15;101105.28;;;13.47;33.09
30636;BME280;17400;52.392;9.750;2023-04-06T12:42:42;101095.22;;;13.47;32.97
30636;BME280;17400;52.392;9.750;2023-04-06T12:45:13;101102.34;;;13.48;33.02
30636;BME280;17400;52.392;9.750;2023-04-06T12:47:43;101101.09;;;13.58;32.64
30636;BME280;17400;52.392;9.750;2023-04-06T12:50:11;101097.34;;;13.65;33.44
30636;BME280;17400;52.392;9.750;2023-04-06T12:52:39;101090.88;;;13.80;32.56
30636;BME280;17400;52.392;9.750;2023-04-06T12:55:07;101091.28;;;13.83;32.87
30636;BME280;17400;52.392;9.750;2023-04-06T12:57:35;101085.44;;;13.93;32.93
30636;BME280;17400;52.392;9.750;2023-04-06T13:00:04;101094.84;;;14.04;32.27
30636;BME280;17400;52.392;9.750;2023-04-06T13:02:36;101083.94;;;14.11;32.20
30636;BME280;17400;52.392;9.750;2023-04-06T13:05:04;101073.03;;;14.18;31.76
30636;BME280;17400;52.392;9.750;2023-04-06T13:07:34;101067.78;;;14.29;32.39